Hamilton, Nebraska
Current Conditions -  °F | °C
As of 11:35 AM on Sunday 23 Nov 2014 (Local Time) from KHJH Reporting Station
Overcast Overcast  
Wind Chill: 37°   Ceiling: 2400
Heat Index: 46°   Visibility: 10mi
Dew Point: 36°   Wind: 22mph
Humidity: 69%   Direction: 340°NNW
Pressure: 29.55"   Gusts: 36mph
Location:  40.3936°N, 97.5387°W
Report Text: KHJH 231735Z AUTO 34019G31KT 10SM OVC024 08/02 A2955 RMK AO2 T00750022
Loading
Personal Weather Stations






























Interactive Weather Map New forecast layout! Learn more

10-Day Weather Forecast

Advertisements
Track Severe Weather on mobile